Архив погоды в Вязьме

Метеограмма Вязьма
Среда, 19 Июня
Время местн. Темп Ветер Видим Явления Облачность нижн/средн/верх Атм. давл. Влжн Точка росы ВНГО R Сост. почвы Tg s
Напр Скр Прв ур.ст ур.м изм
15:00 +26° С 1 - 10 км - переменная облачность 742 763 -0.2 33% +8.3° 1.5 км - - - -
12:00 +24.9° С 3 - 10 км - переменная облачность 743 764 +0.3 41% +10.8° 1.5 км - - - -
09:00 +21.6° З,С-З 2 - 10 км - ясно 742 764 0 53% +11.6° более 2.5 км 0 Влажная (без луж) - -
06:00 +14.2° З,С-З 1 - 10 км - незначительная облачность 742 764 +0.4 77% +10.2° - - - - -
03:00 +10.5° З 1 - 10 км - ясно 742 764 +0.6 89% +8.7° более 2.5 км - - - -
00:00 +15.2° З,С-З 2 - 10 км - ясно 741 763 +0.9 69% +9.5° более 2.5 км - - - -
Вторник, 18 Июня
Время местн. Темп Ветер Видим Явления Облачность нижн/средн/верх Атм. давл. Влжн Точка росы ВНГО R Сост. почвы Tg s
Напр Скр Прв ур.ст ур.м изм
21:00 +21.4° С-З 2 - 10 км - ясно 740 762 +0.2 53% +11.4° более 2.5 км 0 - - -
18:00 +24.4° С 4 - 10 км - переменная облачность 740 761 -0.1 46% +12.1° 1.5 км - - - -
15:00 +25.5° С 2 - 10 км - переменная облачность 740 761 +0.1 42% +11.8° 1.5 км - - - -
12:00 +23.8° С 2 - 10 км - облачно с прояснениями 740 762 +0.5 51% +13° 1 км - - - -
09:00 +19.7° С 2 - 10 км облака рассеиваются {ливневые осадки} облачно с прояснениями 740 761 +0.2 73% +14.8° - 7 Сырая (есть малые или большие лужи) - -
06:00 +16.7° С-З 1 - 4 км дымка {ливневые осадки} облачно с прояснениями 740 761 +0.5 96% +16° 600 м - - - -
03:00 +15.1° штиль 0 - 4 км дымка {ливневые осадки} облачно с прояснениями 739 761 +0.2 96% +14.4° 600 м - - - -
00:00 +17.4° З,С-З 1 - 4 км дождь облачно с прояснениями 740 761 +0.2 92% +16.1° 600 м - - - -
Понедельник, 17 Июня
Время местн. Темп Ветер Видим Явления Облачность нижн/средн/верх Атм. давл. Влжн Точка росы ВНГО R Сост. почвы Tg s
Напр Скр Прв ур.ст ур.м изм
21:00 +20.1° Ю 1 - 10 км - ясно 739 761 -0.3 79% +16.3° более 2.5 км 0 - - -
18:00 +22.2° З,Ю-З 2 - 10 км - преимущественно облачно 740 761 -0.5 64% +15.1° 1 км - - - -
15:00 +21.5° Ю-З 1 - 10 км - преимущественно облачно 740 762 -0.5 66% +14.9° 1 км - - - -
12:00 +21° Ю-З 2 - 10 км - преимущественно облачно 741 762 -0.2 66% +14.3° 1 км - - - -
09:00 +19.9° Ю,Ю-З 1 - 10 км - преимущественно облачно 741 762 0 69% +14° 1 км 0 Влажная (без луж) - -
06:00 +13.4° штиль 0 - 4 км дымка облачно с прояснениями 741 763 +0.2 95% +12.6° 600 м - - - -
03:00 +9.9° штиль 0 - 4 км дымка переменная облачность 741 763 +0.1 95% +9.2° 600 м - - - -
00:00 +12.1° штиль 0 - 4 км дымка переменная облачность 741 763 +0.4 91% +10.7° - - - - -
Воскресенье, 16 Июня
Время местн. Темп Ветер Видим Явления Облачность нижн/средн/верх Атм. давл. Влжн Точка росы ВНГО R Сост. почвы Tg s
Напр Скр Прв ур.ст ур.м изм
21:00 +20.3° С,С-В 1 - 10 км - незначительная облачность 740 762 +0.3 54% +10.6° более 2.5 км 0 - - -
18:00 +22.5° С,С-В 2 - 10 км - переменная облачность 740 762 -0.6 46% +10.3° 1 км - - - -
15:00 +22.5° С,С-В 3 - 10 км - переменная облачность 741 762 0 46% +10.4° 1 км - - - -
12:00 +20.6° С 4 - 10 км - переменная облачность 741 762 +0.2 56% +11.5° 1 км - - - -